sensor_id;sensor_type;location;lat;lon;timestamp;P1;durP1;ratioP1;P2;durP2;ratioP2
34019;SDS011;20895;51.034;3.742;2024-01-27T00:01:38;14.05;;;7.95;;
34019;SDS011;20895;51.034;3.742;2024-01-27T00:04:04;16.88;;;8.27;;
34019;SDS011;20895;51.034;3.742;2024-01-27T00:06:29;16.20;;;7.88;;
34019;SDS011;20895;51.034;3.742;2024-01-27T00:08:54;15.95;;;8.23;;
34019;SDS011;20895;51.034;3.742;2024-01-27T00:11:20;15.77;;;7.63;;
34019;SDS011;20895;51.034;3.742;2024-01-27T00:13:45;19.50;;;8.75;;
34019;SDS011;20895;51.034;3.742;2024-01-27T00:16:14;22.70;;;8.70;;
34019;SDS011;20895;51.034;3.742;2024-01-27T00:18:39;19.50;;;9.02;;
34019;SDS011;20895;51.034;3.742;2024-01-27T00:21:05;16.48;;;8.80;;
34019;SDS011;20895;51.034;3.742;2024-01-27T00:23:31;15.75;;;8.27;;
34019;SDS011;20895;51.034;3.742;2024-01-27T00:25:57;14.52;;;8.65;;
34019;SDS011;20895;51.034;3.742;2024-01-27T00:28:22;16.73;;;8.07;;
34019;SDS011;20895;51.034;3.742;2024-01-27T00:30:47;16.48;;;9.70;;
34019;SDS011;20895;51.034;3.742;2024-01-27T00:33:13;20.98;;;9.60;;
34019;SDS011;20895;51.034;3.742;2024-01-27T00:35:38;19.80;;;9.35;;
34019;SDS011;20895;51.034;3.742;2024-01-27T00:38:03;22.25;;;10.48;;
34019;SDS011;20895;51.034;3.742;2024-01-27T00:40:28;20.45;;;10.32;;
34019;SDS011;20895;51.034;3.742;2024-01-27T00:42:54;15.75;;;11.20;;
34019;SDS011;20895;51.034;3.742;2024-01-27T00:45:19;18.30;;;9.50;;
34019;SDS011;20895;51.034;3.742;2024-01-27T00:47:45;20.65;;;9.68;;
34019;SDS011;20895;51.034;3.742;2024-01-27T00:50:10;23.60;;;9.48;;
34019;SDS011;20895;51.034;3.742;2024-01-27T00:52:36;22.13;;;10.25;;
34019;SDS011;20895;51.034;3.742;2024-01-27T00:55:01;23.60;;;10.57;;
34019;SDS011;20895;51.034;3.742;2024-01-27T00:57:26;14.00;;;9.40;;
34019;SDS011;20895;51.034;3.742;2024-01-27T00:59:52;22.55;;;11.23;;
34019;SDS011;20895;51.034;3.742;2024-01-27T01:02:17;19.75;;;10.27;;
34019;SDS011;20895;51.034;3.742;2024-01-27T01:04:42;18.02;;;11.20;;
34019;SDS011;20895;51.034;3.742;2024-01-27T01:07:07;18.88;;;10.85;;
34019;SDS011;20895;51.034;3.742;2024-01-27T01:09:33;18.33;;;9.25;;
34019;SDS011;20895;51.034;3.742;2024-01-27T01:11:58;21.40;;;9.95;;
34019;SDS011;20895;51.034;3.742;2024-01-27T01:14:24;19.10;;;10.70;;
34019;SDS011;20895;51.034;3.742;2024-01-27T01:16:49;20.48;;;10.38;;
34019;SDS011;20895;51.034;3.742;2024-01-27T01:19:15;20.35;;;10.52;;
34019;SDS011;20895;51.034;3.742;2024-01-27T01:21:40;19.45;;;9.50;;
34019;SDS011;20895;51.034;3.742;2024-01-27T01:24:05;23.00;;;11.38;;
34019;SDS011;20895;51.034;3.742;2024-01-27T01:26:31;18.92;;;10.45;;
34019;SDS011;20895;51.034;3.742;2024-01-27T01:28:56;18.42;;;11.30;;
34019;SDS011;20895;51.034;3.742;2024-01-27T01:31:21;21.17;;;11.88;;
34019;SDS011;20895;51.034;3.742;2024-01-27T01:33:47;21.08;;;9.90;;
34019;SDS011;20895;51.034;3.742;2024-01-27T01:36:12;22.27;;;12.15;;
34019;SDS011;20895;51.034;3.742;2024-01-27T01:38:37;18.52;;;10.43;;
34019;SDS011;20895;51.034;3.742;2024-01-27T01:41:02;17.52;;;10.00;;
34019;SDS011;20895;51.034;3.742;2024-01-27T01:43:28;25.33;;;11.35;;
34019;SDS011;20895;51.034;3.742;2024-01-27T01:45:53;22.92;;;11.82;;
34019;SDS011;20895;51.034;3.742;2024-01-27T01:48:19;20.35;;;11.02;;
34019;SDS011;20895;51.034;3.742;2024-01-27T01:50:44;23.75;;;11.07;;
34019;SDS011;20895;51.034;3.742;2024-01-27T01:53:10;20.88;;;11.65;;
34019;SDS011;20895;51.034;3.742;2024-01-27T01:55:36;27.60;;;11.88;;
34019;SDS011;20895;51.034;3.742;2024-01-27T01:58:01;19.50;;;10.88;;
34019;SDS011;20895;51.034;3.742;2024-01-27T02:00:27;22.17;;;10.60;;
34019;SDS011;20895;51.034;3.742;2024-01-27T02:02:52;24.00;;;12.32;;
34019;SDS011;20895;51.034;3.742;2024-01-27T02:05:17;19.95;;;11.48;;
34019;SDS011;20895;51.034;3.742;2024-01-27T02:07:43;21.30;;;11.52;;
34019;SDS011;20895;51.034;3.742;2024-01-27T02:10:12;22.75;;;12.13;;
34019;SDS011;20895;51.034;3.742;2024-01-27T02:12:38;23.15;;;13.15;;
34019;SDS011;20895;51.034;3.742;2024-01-27T02:15:03;20.27;;;10.15;;
34019;SDS011;20895;51.034;3.742;2024-01-27T02:17:28;18.55;;;12.02;;
34019;SDS011;20895;51.034;3.742;2024-01-27T02:19:54;21.92;;;12.52;;
34019;SDS011;20895;51.034;3.742;2024-01-27T02:22:19;24.08;;;10.05;;
34019;SDS011;20895;51.034;3.742;2024-01-27T02:24:44;23.48;;;10.80;;
34019;SDS011;20895;51.034;3.742;2024-01-27T02:27:11;21.00;;;10.63;;
34019;SDS011;20895;51.034;3.742;2024-01-27T02:29:36;25.73;;;10.70;;
34019;SDS011;20895;51.034;3.742;2024-01-27T02:32:02;21.40;;;9.68;;
34019;SDS011;20895;51.034;3.742;2024-01-27T02:34:27;18.70;;;10.63;;
34019;SDS011;20895;51.034;3.742;2024-01-27T02:36:52;21.10;;;10.93;;
34019;SDS011;20895;51.034;3.742;2024-01-27T02:39:17;20.45;;;10.52;;
34019;SDS011;20895;51.034;3.742;2024-01-27T02:41:43;20.02;;;10.43;;
34019;SDS011;20895;51.034;3.742;2024-01-27T02:44:08;19.85;;;9.82;;
34019;SDS011;20895;51.034;3.742;2024-01-27T02:46:33;15.30;;;9.85;;
34019;SDS011;20895;51.034;3.742;2024-01-27T02:48:58;19.65;;;9.55;;
34019;SDS011;20895;51.034;3.742;2024-01-27T02:51:24;22.25;;;9.90;;
34019;SDS011;20895;51.034;3.742;2024-01-27T02:53:49;20.30;;;10.35;;
34019;SDS011;20895;51.034;3.742;2024-01-27T02:56:15;25.95;;;9.52;;
34019;SDS011;20895;51.034;3.742;2024-01-27T02:58:41;24.98;;;12.05;;
34019;SDS011;20895;51.034;3.742;2024-01-27T03:01:06;18.38;;;9.57;;
34019;SDS011;20895;51.034;3.742;2024-01-27T03:03:31;18.48;;;8.68;;
34019;SDS011;20895;51.034;3.742;2024-01-27T03:05:57;21.38;;;10.57;;
34019;SDS011;20895;51.034;3.742;2024-01-27T03:08:22;19.77;;;8.73;;
34019;SDS011;20895;51.034;3.742;2024-01-27T03:10:47;17.65;;;9.50;;
34019;SDS011;20895;51.034;3.742;2024-01-27T03:13:12;19.15;;;9.85;;
34019;SDS011;20895;51.034;3.742;2024-01-27T03:15:37;17.27;;;8.70;;
34019;SDS011;20895;51.034;3.742;2024-01-27T03:18:03;17.48;;;9.25;;
34019;SDS011;20895;51.034;3.742;2024-01-27T03:20:28;16.50;;;9.48;;
34019;SDS011;20895;51.034;3.742;2024-01-27T03:22:56;25.88;;;11.82;;
34019;SDS011;20895;51.034;3.742;2024-01-27T03:25:21;19.50;;;9.02;;
34019;SDS011;20895;51.034;3.742;2024-01-27T03:27:46;15.43;;;8.98;;
34019;SDS011;20895;51.034;3.742;2024-01-27T03:30:12;19.55;;;9.98;;
34019;SDS011;20895;51.034;3.742;2024-01-27T03:32:37;16.52;;;9.02;;
34019;SDS011;20895;51.034;3.742;2024-01-27T03:35:02;23.33;;;9.27;;
34019;SDS011;20895;51.034;3.742;2024-01-27T03:37:28;14.75;;;8.55;;
34019;SDS011;20895;51.034;3.742;2024-01-27T03:39:53;19.50;;;9.40;;
34019;SDS011;20895;51.034;3.742;2024-01-27T03:42:18;23.42;;;9.20;;
34019;SDS011;20895;51.034;3.742;2024-01-27T03:44:44;24.88;;;8.88;;
34019;SDS011;20895;51.034;3.742;2024-01-27T03:47:09;21.10;;;8.80;;
34019;SDS011;20895;51.034;3.742;2024-01-27T03:49:34;14.50;;;8.35;;
34019;SDS011;20895;51.034;3.742;2024-01-27T03:51:59;18.65;;;8.20;;
34019;SDS011;20895;51.034;3.742;2024-01-27T03:54:25;17.40;;;7.55;;
34019;SDS011;20895;51.034;3.742;2024-01-27T03:56:50;16.23;;;8.43;;
34019;SDS011;20895;51.034;3.742;2024-01-27T03:59:15;17.30;;;9.43;;
34019;SDS011;20895;51.034;3.742;2024-01-27T04:01:40;19.45;;;8.15;;
34019;SDS011;20895;51.034;3.742;2024-01-27T04:04:06;22.70;;;9.85;;
34019;SDS011;20895;51.034;3.742;2024-01-27T04:06:40;22.98;;;9.57;;
34019;SDS011;20895;51.034;3.742;2024-01-27T04:09:05;19.17;;;8.10;;
34019;SDS011;20895;51.034;3.742;2024-01-27T04:11:33;17.67;;;8.82;;
34019;SDS011;20895;51.034;3.742;2024-01-27T04:13:59;17.42;;;8.18;;
34019;SDS011;20895;51.034;3.742;2024-01-27T04:16:24;16.10;;;8.35;;
34019;SDS011;20895;51.034;3.742;2024-01-27T04:18:49;24.40;;;8.48;;
34019;SDS011;20895;51.034;3.742;2024-01-27T04:21:15;24.58;;;7.88;;
34019;SDS011;20895;51.034;3.742;2024-01-27T04:23:40;19.67;;;8.77;;
34019;SDS011;20895;51.034;3.742;2024-01-27T04:26:05;21.63;;;7.93;;
34019;SDS011;20895;51.034;3.742;2024-01-27T04:28:31;17.05;;;11.07;;
34019;SDS011;20895;51.034;3.742;2024-01-27T04:30:56;16.48;;;8.02;;
34019;SDS011;20895;51.034;3.742;2024-01-27T04:33:22;17.70;;;9.00;;
34019;SDS011;20895;51.034;3.742;2024-01-27T04:35:47;14.32;;;8.25;;
34019;SDS011;20895;51.034;3.742;2024-01-27T04:38:12;17.23;;;8.25;;
34019;SDS011;20895;51.034;3.742;2024-01-27T04:40:38;23.13;;;8.57;;
34019;SDS011;20895;51.034;3.742;2024-01-27T04:43:03;24.20;;;8.30;;
34019;SDS011;20895;51.034;3.742;2024-01-27T04:45:28;22.00;;;9.05;;
34019;SDS011;20895;51.034;3.742;2024-01-27T04:47:53;25.73;;;9.57;;
34019;SDS011;20895;51.034;3.742;2024-01-27T04:50:19;18.27;;;8.40;;
34019;SDS011;20895;51.034;3.742;2024-01-27T04:52:44;14.40;;;7.88;;
34019;SDS011;20895;51.034;3.742;2024-01-27T04:55:10;17.33;;;7.68;;
34019;SDS011;20895;51.034;3.742;2024-01-27T04:57:35;24.10;;;9.23;;
34019;SDS011;20895;51.034;3.742;2024-01-27T05:00:01;23.58;;;9.10;;
34019;SDS011;20895;51.034;3.742;2024-01-27T05:02:26;19.92;;;8.40;;
34019;SDS011;20895;51.034;3.742;2024-01-27T05:04:51;20.27;;;8.15;;
34019;SDS011;20895;51.034;3.742;2024-01-27T05:07:17;15.75;;;8.65;;
34019;SDS011;20895;51.034;3.742;2024-01-27T05:09:42;15.57;;;7.63;;
34019;SDS011;20895;51.034;3.742;2024-01-27T05:12:08;18.75;;;8.57;;
34019;SDS011;20895;51.034;3.742;2024-01-27T05:14:34;21.25;;;8.50;;
34019;SDS011;20895;51.034;3.742;2024-01-27T05:17:00;22.60;;;8.70;;
34019;SDS011;20895;51.034;3.742;2024-01-27T05:19:25;20.95;;;7.95;;
34019;SDS011;20895;51.034;3.742;2024-01-27T05:21:50;19.60;;;9.60;;
34019;SDS011;20895;51.034;3.742;2024-01-27T05:24:15;23.58;;;9.45;;
34019;SDS011;20895;51.034;3.742;2024-01-27T05:26:41;17.38;;;8.27;;
34019;SDS011;20895;51.034;3.742;2024-01-27T05:29:06;20.52;;;11.70;;
34019;SDS011;20895;51.034;3.742;2024-01-27T05:31:32;15.55;;;8.35;;
34019;SDS011;20895;51.034;3.742;2024-01-27T05:33:58;18.27;;;9.10;;
34019;SDS011;20895;51.034;3.742;2024-01-27T05:36:24;21.52;;;7.68;;
34019;SDS011;20895;51.034;3.742;2024-01-27T05:38:49;19.33;;;7.43;;
34019;SDS011;20895;51.034;3.742;2024-01-27T05:41:14;22.70;;;10.15;;
34019;SDS011;20895;51.034;3.742;2024-01-27T05:43:39;21.63;;;8.85;;
34019;SDS011;20895;51.034;3.742;2024-01-27T05:46:05;15.20;;;8.27;;
34019;SDS011;20895;51.034;3.742;2024-01-27T05:48:30;22.88;;;8.48;;
34019;SDS011;20895;51.034;3.742;2024-01-27T05:50:56;17.83;;;8.10;;
34019;SDS011;20895;51.034;3.742;2024-01-27T05:53:22;21.08;;;8.55;;
34019;SDS011;20895;51.034;3.742;2024-01-27T05:55:47;23.42;;;9.60;;
34019;SDS011;20895;51.034;3.742;2024-01-27T05:58:12;17.48;;;8.60;;
34019;SDS011;20895;51.034;3.742;2024-01-27T06:00:37;22.92;;;8.63;;
34019;SDS011;20895;51.034;3.742;2024-01-27T06:03:03;18.30;;;9.35;;
34019;SDS011;20895;51.034;3.742;2024-01-27T06:05:28;25.92;;;9.52;;
34019;SDS011;20895;51.034;3.742;2024-01-27T06:07:54;17.30;;;8.25;;
34019;SDS011;20895;51.034;3.742;2024-01-27T06:10:19;19.95;;;9.05;;
34019;SDS011;20895;51.034;3.742;2024-01-27T06:12:44;19.02;;;9.02;;
34019;SDS011;20895;51.034;3.742;2024-01-27T06:15:10;20.98;;;9.00;;
34019;SDS011;20895;51.034;3.742;2024-01-27T06:17:36;19.50;;;8.52;;
34019;SDS011;20895;51.034;3.742;2024-01-27T06:20:01;19.33;;;8.88;;
34019;SDS011;20895;51.034;3.742;2024-01-27T06:22:27;24.02;;;10.23;;
34019;SDS011;20895;51.034;3.742;2024-01-27T06:24:52;20.60;;;9.38;;
34019;SDS011;20895;51.034;3.742;2024-01-27T06:27:17;24.13;;;9.95;;
34019;SDS011;20895;51.034;3.742;2024-01-27T06:29:42;18.52;;;7.93;;
34019;SDS011;20895;51.034;3.742;2024-01-27T06:32:09;22.10;;;8.32;;
34019;SDS011;20895;51.034;3.742;2024-01-27T06:34:34;21.00;;;8.60;;
34019;SDS011;20895;51.034;3.742;2024-01-27T06:36:59;18.85;;;8.65;;
34019;SDS011;20895;51.034;3.742;2024-01-27T06:39:24;16.95;;;8.15;;
34019;SDS011;20895;51.034;3.742;2024-01-27T06:41:50;15.52;;;7.97;;
34019;SDS011;20895;51.034;3.742;2024-01-27T06:44:15;19.67;;;9.88;;
34019;SDS011;20895;51.034;3.742;2024-01-27T06:46:40;23.70;;;8.10;;
34019;SDS011;20895;51.034;3.742;2024-01-27T06:49:06;22.38;;;8.68;;
34019;SDS011;20895;51.034;3.742;2024-01-27T06:51:31;13.75;;;8.07;;
34019;SDS011;20895;51.034;3.742;2024-01-27T06:53:56;22.63;;;9.00;;
34019;SDS011;20895;51.034;3.742;2024-01-27T06:56:21;16.40;;;7.57;;
34019;SDS011;20895;51.034;3.742;2024-01-27T06:58:47;20.02;;;7.85;;
34019;SDS011;20895;51.034;3.742;2024-01-27T07:01:12;25.08;;;9.30;;
34019;SDS011;20895;51.034;3.742;2024-01-27T07:03:37;21.30;;;8.75;;
34019;SDS011;20895;51.034;3.742;2024-01-27T07:06:04;21.95;;;8.45;;
34019;SDS011;20895;51.034;3.742;2024-01-27T07:08:30;19.02;;;7.80;;
34019;SDS011;20895;51.034;3.742;2024-01-27T07:10:55;21.95;;;8.60;;
34019;SDS011;20895;51.034;3.742;2024-01-27T07:13:20;22.38;;;10.15;;
34019;SDS011;20895;51.034;3.742;2024-01-27T07:15:45;16.58;;;8.18;;
34019;SDS011;20895;51.034;3.742;2024-01-27T07:18:11;16.88;;;8.45;;
34019;SDS011;20895;51.034;3.742;2024-01-27T07:20:36;19.77;;;8.75;;
34019;SDS011;20895;51.034;3.742;2024-01-27T07:23:02;23.05;;;9.10;;
34019;SDS011;20895;51.034;3.742;2024-01-27T07:25:27;20.23;;;8.32;;
34019;SDS011;20895;51.034;3.742;2024-01-27T07:27:54;23.83;;;9.10;;
34019;SDS011;20895;51.034;3.742;2024-01-27T07:30:20;18.67;;;9.02;;
34019;SDS011;20895;51.034;3.742;2024-01-27T07:32:45;18.98;;;8.00;;
34019;SDS011;20895;51.034;3.742;2024-01-27T07:35:10;21.95;;;8.88;;
34019;SDS011;20895;51.034;3.742;2024-01-27T07:37:36;22.52;;;10.13;;
34019;SDS011;20895;51.034;3.742;2024-01-27T07:40:01;24.38;;;9.57;;
34019;SDS011;20895;51.034;3.742;2024-01-27T07:42:27;21.55;;;9.05;;
34019;SDS011;20895;51.034;3.742;2024-01-27T07:44:52;21.05;;;9.95;;
34019;SDS011;20895;51.034;3.742;2024-01-27T07:47:18;20.90;;;9.52;;
34019;SDS011;20895;51.034;3.742;2024-01-27T07:49:43;21.25;;;8.82;;
34019;SDS011;20895;51.034;3.742;2024-01-27T07:52:09;18.33;;;9.48;;
34019;SDS011;20895;51.034;3.742;2024-01-27T07:54:35;17.27;;;8.18;;
34019;SDS011;20895;51.034;3.742;2024-01-27T07:57:04;18.55;;;9.40;;
34019;SDS011;20895;51.034;3.742;2024-01-27T07:59:29;17.67;;;7.90;;
34019;SDS011;20895;51.034;3.742;2024-01-27T08:01:54;25.48;;;8.82;;
34019;SDS011;20895;51.034;3.742;2024-01-27T08:04:20;21.77;;;7.80;;
34019;SDS011;20895;51.034;3.742;2024-01-27T08:06:46;26.13;;;8.93;;
34019;SDS011;20895;51.034;3.742;2024-01-27T08:09:12;21.13;;;9.10;;
34019;SDS011;20895;51.034;3.742;2024-01-27T08:11:37;19.83;;;8.27;;
34019;SDS011;20895;51.034;3.742;2024-01-27T08:14:02;18.58;;;8.43;;
34019;SDS011;20895;51.034;3.742;2024-01-27T08:16:28;18.02;;;8.77;;
34019;SDS011;20895;51.034;3.742;2024-01-27T08:18:53;19.77;;;8.48;;
34019;SDS011;20895;51.034;3.742;2024-01-27T08:21:18;20.23;;;9.20;;
34019;SDS011;20895;51.034;3.742;2024-01-27T08:23:44;20.42;;;10.68;;
34019;SDS011;20895;51.034;3.742;2024-01-27T08:26:09;17.92;;;9.23;;
34019;SDS011;20895;51.034;3.742;2024-01-27T08:28:34;27.30;;;9.55;;
34019;SDS011;20895;51.034;3.742;2024-01-27T08:31:00;23.20;;;9.20;;
34019;SDS011;20895;51.034;3.742;2024-01-27T08:33:26;34.10;;;9.23;;
34019;SDS011;20895;51.034;3.742;2024-01-27T08:35:52;17.77;;;8.48;;
34019;SDS011;20895;51.034;3.742;2024-01-27T08:38:17;15.48;;;7.95;;
34019;SDS011;20895;51.034;3.742;2024-01-27T08:40:42;22.38;;;8.25;;
34019;SDS011;20895;51.034;3.742;2024-01-27T08:43:08;22.50;;;7.95;;
34019;SDS011;20895;51.034;3.742;2024-01-27T08:45:35;21.02;;;8.18;;
34019;SDS011;20895;51.034;3.742;2024-01-27T08:48:00;24.00;;;7.72;;
34019;SDS011;20895;51.034;3.742;2024-01-27T08:50:25;19.70;;;8.00;;
34019;SDS011;20895;51.034;3.742;2024-01-27T08:52:50;17.65;;;7.65;;
34019;SDS011;20895;51.034;3.742;2024-01-27T08:55:16;18.33;;;6.82;;
34019;SDS011;20895;51.034;3.742;2024-01-27T08:57:45;16.15;;;7.18;;
34019;SDS011;20895;51.034;3.742;2024-01-27T09:00:11;22.25;;;8.60;;
34019;SDS011;20895;51.034;3.742;2024-01-27T09:02:38;18.27;;;8.18;;
34019;SDS011;20895;51.034;3.742;2024-01-27T09:05:03;15.13;;;6.78;;
34019;SDS011;20895;51.034;3.742;2024-01-27T09:07:28;18.58;;;7.32;;
34019;SDS011;20895;51.034;3.742;2024-01-27T09:09:54;24.08;;;7.68;;
34019;SDS011;20895;51.034;3.742;2024-01-27T09:12:19;19.83;;;7.00;;
34019;SDS011;20895;51.034;3.742;2024-01-27T09:14:46;17.88;;;7.43;;
34019;SDS011;20895;51.034;3.742;2024-01-27T09:17:11;16.58;;;7.70;;
34019;SDS011;20895;51.034;3.742;2024-01-27T09:19:37;18.65;;;6.70;;
34019;SDS011;20895;51.034;3.742;2024-01-27T09:22:02;21.25;;;7.63;;
34019;SDS011;20895;51.034;3.742;2024-01-27T09:24:28;17.63;;;6.65;;
34019;SDS011;20895;51.034;3.742;2024-01-27T09:26:53;18.25;;;7.43;;
34019;SDS011;20895;51.034;3.742;2024-01-27T09:29:18;24.38;;;8.27;;
34019;SDS011;20895;51.034;3.742;2024-01-27T09:31:45;19.55;;;7.00;;
34019;SDS011;20895;51.034;3.742;2024-01-27T09:34:10;27.77;;;7.88;;
34019;SDS011;20895;51.034;3.742;2024-01-27T09:36:35;20.27;;;6.60;;
34019;SDS011;20895;51.034;3.742;2024-01-27T09:39:01;12.40;;;6.68;;
34019;SDS011;20895;51.034;3.742;2024-01-27T09:41:29;14.90;;;7.72;;
34019;SDS011;20895;51.034;3.742;2024-01-27T09:44:04;18.20;;;6.55;;
34019;SDS011;20895;51.034;3.742;2024-01-27T09:46:30;19.75;;;7.13;;
34019;SDS011;20895;51.034;3.742;2024-01-27T09:48:56;17.17;;;4.78;;
34019;SDS011;20895;51.034;3.742;2024-01-27T09:51:21;13.32;;;5.75;;
34019;SDS011;20895;51.034;3.742;2024-01-27T09:53:47;15.70;;;6.03;;
34019;SDS011;20895;51.034;3.742;2024-01-27T09:56:12;16.55;;;6.07;;
34019;SDS011;20895;51.034;3.742;2024-01-27T09:58:42;17.52;;;5.53;;
34019;SDS011;20895;51.034;3.742;2024-01-27T10:01:08;10.32;;;4.78;;
34019;SDS011;20895;51.034;3.742;2024-01-27T10:03:33;19.38;;;5.18;;
34019;SDS011;20895;51.034;3.742;2024-01-27T10:05:59;33.65;;;10.10;;
34019;SDS011;20895;51.034;3.742;2024-01-27T10:08:25;17.42;;;5.13;;
34019;SDS011;20895;51.034;3.742;2024-01-27T10:10:52;11.57;;;5.50;;
34019;SDS011;20895;51.034;3.742;2024-01-27T10:13:19;17.55;;;5.28;;
34019;SDS011;20895;51.034;3.742;2024-01-27T10:15:44;12.88;;;5.68;;
34019;SDS011;20895;51.034;3.742;2024-01-27T10:18:10;18.00;;;4.95;;
34019;SDS011;20895;51.034;3.742;2024-01-27T10:20:38;19.42;;;5.75;;
34019;SDS011;20895;51.034;3.742;2024-01-27T10:23:10;17.05;;;5.95;;
34019;SDS011;20895;51.034;3.742;2024-01-27T10:25:39;18.40;;;5.57;;
34019;SDS011;20895;51.034;3.742;2024-01-27T10:28:08;12.25;;;4.85;;
34019;SDS011;20895;51.034;3.742;2024-01-27T10:30:33;14.10;;;4.85;;
34019;SDS011;20895;51.034;3.742;2024-01-27T10:32:59;20.80;;;5.88;;
34019;SDS011;20895;51.034;3.742;2024-01-27T10:35:24;15.60;;;4.72;;
34019;SDS011;20895;51.034;3.742;2024-01-27T10:37:53;19.63;;;5.63;;
34019;SDS011;20895;51.034;3.742;2024-01-27T10:40:19;15.85;;;4.78;;
34019;SDS011;20895;51.034;3.742;2024-01-27T10:42:45;13.32;;;5.45;;
34019;SDS011;20895;51.034;3.742;2024-01-27T10:45:11;15.57;;;5.03;;
34019;SDS011;20895;51.034;3.742;2024-01-27T10:47:36;14.48;;;4.72;;
34019;SDS011;20895;51.034;3.742;2024-01-27T10:50:03;17.45;;;3.97;;
34019;SDS011;20895;51.034;3.742;2024-01-27T10:52:33;10.75;;;4.88;;
34019;SDS011;20895;51.034;3.742;2024-01-27T10:55:00;12.10;;;4.95;;
34019;SDS011;20895;51.034;3.742;2024-01-27T10:57:26;10.43;;;4.47;;
34019;SDS011;20895;51.034;3.742;2024-01-27T10:59:52;14.02;;;4.45;;
34019;SDS011;20895;51.034;3.742;2024-01-27T11:02:18;17.15;;;4.93;;
34019;SDS011;20895;51.034;3.742;2024-01-27T11:04:43;11.57;;;4.40;;
34019;SDS011;20895;51.034;3.742;2024-01-27T11:07:09;14.18;;;4.75;;
34019;SDS011;20895;51.034;3.742;2024-01-27T11:09:35;10.60;;;4.22;;
34019;SDS011;20895;51.034;3.742;2024-01-27T11:12:01;12.50;;;3.92;;
34019;SDS011;20895;51.034;3.742;2024-01-27T11:14:27;13.93;;;6.38;;
34019;SDS011;20895;51.034;3.742;2024-01-27T11:16:56;20.98;;;4.97;;
34019;SDS011;20895;51.034;3.742;2024-01-27T11:19:21;12.95;;;5.05;;
34019;SDS011;20895;51.034;3.742;2024-01-27T11:21:47;13.82;;;5.93;;
34019;SDS011;20895;51.034;3.742;2024-01-27T11:24:16;15.48;;;4.30;;
34019;SDS011;20895;51.034;3.742;2024-01-27T11:26:41;19.92;;;4.65;;
34019;SDS011;20895;51.034;3.742;2024-01-27T11:29:10;13.43;;;4.30;;
34019;SDS011;20895;51.034;3.742;2024-01-27T11:31:44;19.17;;;7.03;;
34019;SDS011;20895;51.034;3.742;2024-01-27T11:34:12;18.13;;;5.00;;
34019;SDS011;20895;51.034;3.742;2024-01-27T11:36:37;17.63;;;4.22;;
34019;SDS011;20895;51.034;3.742;2024-01-27T11:39:04;13.85;;;4.38;;
34019;SDS011;20895;51.034;3.742;2024-01-27T11:41:30;7.55;;;2.55;;
34019;SDS011;20895;51.034;3.742;2024-01-27T11:43:58;17.27;;;5.18;;
34019;SDS011;20895;51.034;3.742;2024-01-27T11:46:27;18.33;;;5.60;;
34019;SDS011;20895;51.034;3.742;2024-01-27T11:48:52;16.42;;;6.18;;
34019;SDS011;20895;51.034;3.742;2024-01-27T11:51:18;11.40;;;4.05;;
34019;SDS011;20895;51.034;3.742;2024-01-27T11:53:48;15.23;;;4.85;;
34019;SDS011;20895;51.034;3.742;2024-01-27T11:56:13;15.50;;;4.22;;
34019;SDS011;20895;51.034;3.742;2024-01-27T11:58:45;14.90;;;5.90;;
34019;SDS011;20895;51.034;3.742;2024-01-27T12:01:10;15.35;;;3.55;;
34019;SDS011;20895;51.034;3.742;2024-01-27T12:03:36;11.68;;;3.72;;
34019;SDS011;20895;51.034;3.742;2024-01-27T12:06:01;14.77;;;4.50;;
34019;SDS011;20895;51.034;3.742;2024-01-27T12:08:26;14.98;;;4.10;;
34019;SDS011;20895;51.034;3.742;2024-01-27T12:10:53;14.50;;;4.53;;
34019;SDS011;20895;51.034;3.742;2024-01-27T12:13:18;17.02;;;6.13;;
34019;SDS011;20895;51.034;3.742;2024-01-27T12:15:43;20.20;;;6.13;;
34019;SDS011;20895;51.034;3.742;2024-01-27T12:18:09;15.63;;;4.70;;
34019;SDS011;20895;51.034;3.742;2024-01-27T12:20:34;13.07;;;4.22;;
34019;SDS011;20895;51.034;3.742;2024-01-27T12:23:03;12.95;;;3.85;;
34019;SDS011;20895;51.034;3.742;2024-01-27T12:25:28;18.58;;;4.20;;
34019;SDS011;20895;51.034;3.742;2024-01-27T12:27:53;14.88;;;4.93;;
34019;SDS011;20895;51.034;3.742;2024-01-27T12:30:19;15.98;;;4.40;;
34019;SDS011;20895;51.034;3.742;2024-01-27T12:32:46;11.18;;;3.58;;
34019;SDS011;20895;51.034;3.742;2024-01-27T12:35:11;14.65;;;3.97;;
34019;SDS011;20895;51.034;3.742;2024-01-27T12:37:37;13.50;;;3.42;;
34019;SDS011;20895;51.034;3.742;2024-01-27T12:40:03;10.63;;;3.53;;
34019;SDS011;20895;51.034;3.742;2024-01-27T12:42:41;8.63;;;3.75;;
34019;SDS011;20895;51.034;3.742;2024-01-27T12:45:06;9.90;;;4.43;;
34019;SDS011;20895;51.034;3.742;2024-01-27T12:47:32;13.15;;;3.53;;
34019;SDS011;20895;51.034;3.742;2024-01-27T12:49:58;9.23;;;4.35;;
34019;SDS011;20895;51.034;3.742;2024-01-27T12:52:23;13.05;;;3.70;;
34019;SDS011;20895;51.034;3.742;2024-01-27T12:54:49;12.63;;;4.03;;
34019;SDS011;20895;51.034;3.742;2024-01-27T12:57:15;12.15;;;3.50;;
34019;SDS011;20895;51.034;3.742;2024-01-27T12:59:40;9.15;;;2.92;;
34019;SDS011;20895;51.034;3.742;2024-01-27T13:02:06;10.60;;;2.40;;
34019;SDS011;20895;51.034;3.742;2024-01-27T13:04:31;10.52;;;3.05;;
34019;SDS011;20895;51.034;3.742;2024-01-27T13:06:56;9.55;;;3.58;;
34019;SDS011;20895;51.034;3.742;2024-01-27T13:09:21;17.00;;;3.33;;
34019;SDS011;20895;51.034;3.742;2024-01-27T13:11:47;15.05;;;4.03;;
34019;SDS011;20895;51.034;3.742;2024-01-27T13:14:12;13.18;;;3.92;;
34019;SDS011;20895;51.034;3.742;2024-01-27T13:16:39;14.65;;;3.35;;
34019;SDS011;20895;51.034;3.742;2024-01-27T13:19:04;9.00;;;3.83;;
34019;SDS011;20895;51.034;3.742;2024-01-27T13:21:30;14.55;;;4.20;;
34019;SDS011;20895;51.034;3.742;2024-01-27T13:23:55;11.20;;;3.03;;
34019;SDS011;20895;51.034;3.742;2024-01-27T13:26:21;11.77;;;3.90;;
34019;SDS011;20895;51.034;3.742;2024-01-27T13:28:46;17.17;;;3.88;;
34019;SDS011;20895;51.034;3.742;2024-01-27T13:31:15;10.55;;;3.30;;
34019;SDS011;20895;51.034;3.742;2024-01-27T13:33:40;9.07;;;3.75;;
34019;SDS011;20895;51.034;3.742;2024-01-27T13:36:05;10.68;;;3.13;;
34019;SDS011;20895;51.034;3.742;2024-01-27T13:38:31;10.18;;;3.00;;
34019;SDS011;20895;51.034;3.742;2024-01-27T13:40:56;10.13;;;2.88;;
34019;SDS011;20895;51.034;3.742;2024-01-27T13:43:21;10.57;;;3.00;;
34019;SDS011;20895;51.034;3.742;2024-01-27T13:45:46;11.27;;;2.65;;
34019;SDS011;20895;51.034;3.742;2024-01-27T13:48:12;12.98;;;3.05;;
34019;SDS011;20895;51.034;3.742;2024-01-27T13:50:38;7.55;;;3.08;;
34019;SDS011;20895;51.034;3.742;2024-01-27T13:53:03;9.68;;;3.08;;
34019;SDS011;20895;51.034;3.742;2024-01-27T13:55:30;8.85;;;2.67;;
34019;SDS011;20895;51.034;3.742;2024-01-27T13:57:55;15.55;;;3.47;;
34019;SDS011;20895;51.034;3.742;2024-01-27T14:00:21;9.95;;;4.28;;
34019;SDS011;20895;51.034;3.742;2024-01-27T14:02:46;8.52;;;2.65;;
34019;SDS011;20895;51.034;3.742;2024-01-27T14:05:12;9.23;;;2.30;;
34019;SDS011;20895;51.034;3.742;2024-01-27T14:07:37;12.25;;;2.50;;
34019;SDS011;20895;51.034;3.742;2024-01-27T14:10:02;15.20;;;2.97;;
34019;SDS011;20895;51.034;3.742;2024-01-27T14:12:28;8.95;;;3.17;;
34019;SDS011;20895;51.034;3.742;2024-01-27T14:15:02;11.57;;;3.65;;
34019;SDS011;20895;51.034;3.742;2024-01-27T14:17:27;16.52;;;4.13;;
34019;SDS011;20895;51.034;3.742;2024-01-27T14:19:53;8.18;;;4.05;;
34019;SDS011;20895;51.034;3.742;2024-01-27T14:22:18;10.68;;;3.67;;
34019;SDS011;20895;51.034;3.742;2024-01-27T14:24:43;9.02;;;3.67;;